createdAt,value
2018-05-25T00:00:17.461Z,92.70
2018-05-25T00:02:43.823Z,92.30
2018-05-25T00:05:10.200Z,92.30
2018-05-25T00:07:36.597Z,91.90
2018-05-25T00:10:03.584Z,91.50
2018-05-25T00:12:30.751Z,91.60
2018-05-25T00:14:57.204Z,91.00
2018-05-25T00:17:24.101Z,91.00
2018-05-25T00:19:50.513Z,91.30
2018-05-25T00:22:16.904Z,91.00
2018-05-25T00:24:43.396Z,91.10
2018-05-25T00:27:09.701Z,91.30
2018-05-25T00:29:36.055Z,92.00
2018-05-25T00:32:02.420Z,91.70
2018-05-25T00:34:28.815Z,91.60
2018-05-25T00:36:55.241Z,91.70
2018-05-25T00:39:21.721Z,91.70
2018-05-25T00:41:48.149Z,91.50
2018-05-25T00:44:14.621Z,91.10
2018-05-25T00:46:41.026Z,91.10
2018-05-25T00:49:07.454Z,90.60
2018-05-25T00:51:33.795Z,90.50
2018-05-25T00:54:00.171Z,90.90
2018-05-25T00:58:59.768Z,90.80
2018-05-25T01:01:26.185Z,91.10
2018-05-25T01:03:52.580Z,90.80
2018-05-25T01:06:18.967Z,90.90
2018-05-25T01:08:46.074Z,90.40
2018-05-25T01:11:13.232Z,90.40
2018-05-25T01:13:39.696Z,90.10
2018-05-25T01:16:06.077Z,90.10
2018-05-25T01:18:32.411Z,89.90
2018-05-25T01:20:58.880Z,90.00
2018-05-25T01:23:25.210Z,90.10
2018-05-25T01:25:52.328Z,90.30
2018-05-25T01:28:18.661Z,90.30
2018-05-25T01:30:45.045Z,90.50
2018-05-25T01:33:11.971Z,90.30
2018-05-25T01:35:38.359Z,90.20
2018-05-25T01:38:04.712Z,90.10
2018-05-25T01:40:31.097Z,90.20
2018-05-25T01:42:57.434Z,90.20
2018-05-25T01:45:23.811Z,89.80
2018-05-25T01:47:50.906Z,89.40
2018-05-25T01:50:17.214Z,89.50
2018-05-25T01:52:43.603Z,89.80
2018-05-25T01:55:09.947Z,89.60
2018-05-25T01:57:37.040Z,90.40
2018-05-25T02:00:03.416Z,90.40
2018-05-25T02:02:31.452Z,90.10
2018-05-25T02:04:57.786Z,90.10
2018-05-25T02:07:24.148Z,90.40
2018-05-25T02:09:51.197Z,90.30
2018-05-25T02:12:17.539Z,90.30
2018-05-25T02:14:44.597Z,90.00
2018-05-25T02:17:11.885Z,90.00
2018-05-25T02:19:38.225Z,90.30
2018-05-25T02:22:04.581Z,90.40
2018-05-25T02:24:31.660Z,90.80
2018-05-25T02:26:57.976Z,90.70
2018-05-25T02:29:24.318Z,91.00
2018-05-25T02:31:57.512Z,90.90
2018-05-25T02:34:23.850Z,90.80
2018-05-25T02:36:50.163Z,90.40
2018-05-25T02:39:16.534Z,91.20
2018-05-25T02:41:42.915Z,91.00
2018-05-25T02:44:09.310Z,90.90
2018-05-25T02:46:36.430Z,90.90
2018-05-25T02:49:02.855Z,90.90
2018-05-25T02:51:29.178Z,90.50
2018-05-25T02:53:55.550Z,90.50
2018-05-25T02:56:21.854Z,90.40
2018-05-25T02:58:48.188Z,90.50
2018-05-25T03:01:14.553Z,90.30
2018-05-25T03:03:40.884Z,90.00
2018-05-25T03:06:07.979Z,90.00
2018-05-25T03:08:34.329Z,90.00
2018-05-25T03:11:01.435Z,89.50
2018-05-25T03:13:27.809Z,89.60
2018-05-25T03:15:54.156Z,90.30
2018-05-25T03:18:21.251Z,91.00
2018-05-25T03:20:47.586Z,90.80
2018-05-25T03:23:13.891Z,90.80
2018-05-25T03:25:40.204Z,90.80
2018-05-25T03:28:06.556Z,90.70
2018-05-25T03:30:32.892Z,90.80
2018-05-25T03:33:00.033Z,90.80
2018-05-25T03:35:26.766Z,90.30
2018-05-25T03:37:53.115Z,90.60
2018-05-25T03:40:19.476Z,90.70
2018-05-25T03:42:45.803Z,90.70
2018-05-25T03:45:12.189Z,90.90
2018-05-25T03:47:38.557Z,90.80
2018-05-25T03:50:04.885Z,90.80
2018-05-25T03:52:31.224Z,90.80
2018-05-25T03:54:57.763Z,90.80
2018-05-25T03:57:24.145Z,91.20
2018-05-25T04:00:09.479Z,91.30
2018-05-25T04:02:35.832Z,91.10
2018-05-25T04:05:03.100Z,91.00
2018-05-25T04:07:29.401Z,90.80
2018-05-25T04:09:55.758Z,90.20
2018-05-25T04:12:22.142Z,90.00
2018-05-25T04:14:48.449Z,90.20
2018-05-25T04:17:14.779Z,91.20
2018-05-25T04:19:41.125Z,91.30
2018-05-25T04:22:07.420Z,91.10
2018-05-25T04:24:33.795Z,90.40
2018-05-25T04:27:00.139Z,90.50
2018-05-25T04:29:27.212Z,90.30
2018-05-25T04:31:53.520Z,90.30
2018-05-25T04:34:20.613Z,90.30
2018-05-25T04:36:46.964Z,90.20
2018-05-25T04:39:13.308Z,90.20
2018-05-25T04:41:39.625Z,90.20
2018-05-25T04:44:06.052Z,90.20
2018-05-25T04:46:32.488Z,90.20
2018-05-25T04:48:58.840Z,90.80
2018-05-25T04:51:25.155Z,90.80
2018-05-25T04:53:51.548Z,90.50
2018-05-25T04:56:17.861Z,90.40
2018-05-25T04:58:44.229Z,90.20
2018-05-25T05:01:10.599Z,90.10
2018-05-25T05:03:37.778Z,90.10
2018-05-25T05:06:04.932Z,90.10
2018-05-25T05:08:31.252Z,90.00
2018-05-25T05:10:57.589Z,90.20
2018-05-25T05:13:23.895Z,90.10
2018-05-25T05:15:51.004Z,89.40
2018-05-25T05:18:17.329Z,89.40
2018-05-25T05:20:44.568Z,90.00
2018-05-25T05:23:10.875Z,89.40
2018-05-25T05:25:37.194Z,89.30
2018-05-25T05:28:03.529Z,88.70
2018-05-25T05:30:29.856Z,88.40
2018-05-25T05:32:56.455Z,88.20
2018-05-25T05:35:22.891Z,87.80
2018-05-25T05:37:50.001Z,86.80
2018-05-25T05:40:16.334Z,86.80
2018-05-25T05:42:42.669Z,87.00
2018-05-25T05:45:08.960Z,86.80
2018-05-25T05:47:35.244Z,86.60
2018-05-25T05:50:01.600Z,86.80
2018-05-25T05:52:28.038Z,86.10
2018-05-25T05:54:54.346Z,85.80
2018-05-25T05:57:22.387Z,86.10
2018-05-25T05:59:48.693Z,86.20
2018-05-25T06:02:15.062Z,86.10
2018-05-25T06:04:41.424Z,85.90
2018-05-25T06:07:07.700Z,85.50
2018-05-25T06:09:34.051Z,85.00
2018-05-25T06:12:00.420Z,84.40
2018-05-25T06:14:26.727Z,84.60
2018-05-25T06:16:53.794Z,84.60
2018-05-25T06:19:20.108Z,84.40
2018-05-25T06:21:47.144Z,83.70
2018-05-25T06:24:14.267Z,84.30
2018-05-25T06:26:40.659Z,84.30
2018-05-25T06:29:06.972Z,83.80
2018-05-25T06:31:34.049Z,84.00
2018-05-25T06:34:00.421Z,84.00
2018-05-25T06:36:27.505Z,85.00
2018-05-25T06:38:53.884Z,85.00
2018-05-25T06:41:20.828Z,84.80
2018-05-25T06:43:47.194Z,84.90
2018-05-25T06:46:13.533Z,83.10
2018-05-25T06:48:39.886Z,81.80
2018-05-25T06:51:06.268Z,82.20
2018-05-25T06:53:33.366Z,81.40
2018-05-25T06:55:59.709Z,81.30
2018-05-25T06:58:26.060Z,79.10
2018-05-25T07:00:52.441Z,79.20
2018-05-25T07:03:18.797Z,78.30
2018-05-25T07:05:45.160Z,77.00
2018-05-25T07:08:11.522Z,75.90
2018-05-25T07:10:37.917Z,75.40
2018-05-25T07:13:05.011Z,73.80
2018-05-25T07:15:31.360Z,73.80
2018-05-25T07:17:58.705Z,75.00
2018-05-25T07:20:25.070Z,73.00
2018-05-25T07:22:51.448Z,71.90
2018-05-25T07:25:17.813Z,73.00
2018-05-25T07:27:44.176Z,73.10
2018-05-25T07:30:11.256Z,72.20
2018-05-25T07:32:37.617Z,72.20
2018-05-25T07:35:03.977Z,72.10
2018-05-25T07:37:30.315Z,72.20
2018-05-25T07:39:57.408Z,70.70
2018-05-25T07:42:23.736Z,70.70
2018-05-25T07:44:50.127Z,71.20
2018-05-25T07:47:17.183Z,70.30
2018-05-25T07:49:43.528Z,70.20
2018-05-25T07:52:09.871Z,70.20
2018-05-25T07:54:36.223Z,70.00
2018-05-25T07:57:02.619Z,70.30
2018-05-25T07:59:28.975Z,70.50
2018-05-25T08:01:55.319Z,70.90
2018-05-25T08:04:21.647Z,70.30
2018-05-25T08:06:48.025Z,70.10
2018-05-25T08:09:14.386Z,69.40
2018-05-25T08:11:40.793Z,68.60
2018-05-25T08:14:07.143Z,68.70
2018-05-25T08:16:33.522Z,68.40
2018-05-25T08:19:00.601Z,66.50
2018-05-25T08:21:26.960Z,66.40
2018-05-25T08:23:53.303Z,65.60
2018-05-25T08:26:19.678Z,66.20
2018-05-25T08:28:46.657Z,67.00
2018-05-25T08:31:12.983Z,66.00
2018-05-25T08:33:40.116Z,66.90
2018-05-25T08:36:06.493Z,65.60
2018-05-25T08:38:32.834Z,65.80
2018-05-25T08:40:59.161Z,65.50
2018-05-25T08:43:25.480Z,64.30
2018-05-25T08:45:51.848Z,62.90
2018-05-25T08:48:18.193Z,62.40
2018-05-25T08:50:44.551Z,62.10
2018-05-25T08:53:10.989Z,63.50
2018-05-25T08:55:37.336Z,63.80
2018-05-25T08:58:03.673Z,64.40
2018-05-25T09:00:30.005Z,62.10
2018-05-25T09:02:56.313Z,60.40
2018-05-25T09:05:22.664Z,61.10
2018-05-25T09:07:48.993Z,61.90
2018-05-25T09:10:16.057Z,61.10
2018-05-25T09:12:42.372Z,61.20
2018-05-25T09:15:08.742Z,61.00
2018-05-25T09:17:35.088Z,62.20
2018-05-25T09:20:01.457Z,61.90
2018-05-25T09:22:27.776Z,60.50
2018-05-25T09:24:54.133Z,60.70
2018-05-25T09:27:21.164Z,61.00
2018-05-25T09:29:47.481Z,60.90
2018-05-25T09:32:13.839Z,60.90
2018-05-25T09:34:40.923Z,59.90
2018-05-25T09:37:07.246Z,59.80
2018-05-25T09:39:33.588Z,58.60
2018-05-25T09:41:59.969Z,58.20
2018-05-25T09:44:27.015Z,58.80
2018-05-25T09:46:54.102Z,59.00
2018-05-25T09:49:21.175Z,58.50
2018-05-25T09:51:47.481Z,58.50
2018-05-25T09:54:13.807Z,58.40
2018-05-25T09:57:02.178Z,57.70
2018-05-25T09:59:28.562Z,56.10
2018-05-25T10:02:01.827Z,56.00
2018-05-25T10:04:28.140Z,57.10
2018-05-25T10:06:54.474Z,56.60
2018-05-25T10:09:20.823Z,56.20
2018-05-25T10:11:47.744Z,56.30
2018-05-25T10:14:14.073Z,56.40
2018-05-25T10:16:40.412Z,55.40
2018-05-25T10:19:06.756Z,54.70
2018-05-25T10:21:33.817Z,53.80
2018-05-25T10:24:00.880Z,51.80
2018-05-25T10:26:27.227Z,51.80
2018-05-25T10:28:53.563Z,52.40
2018-05-25T10:31:19.879Z,53.00
2018-05-25T10:33:46.258Z,51.80
2018-05-25T10:36:12.610Z,52.70
2018-05-25T10:38:38.955Z,51.90
2018-05-25T10:41:05.314Z,52.10
2018-05-25T10:43:31.645Z,51.00
2018-05-25T10:45:57.993Z,51.30
2018-05-25T10:48:25.059Z,52.90
2018-05-25T10:50:51.373Z,52.10
2018-05-25T10:53:17.708Z,52.10
2018-05-25T10:55:44.041Z,54.20
2018-05-25T10:58:10.450Z,54.80
2018-05-25T11:00:36.775Z,54.30
2018-05-25T11:03:03.120Z,54.20
2018-05-25T11:05:29.420Z,54.30
2018-05-25T11:07:55.776Z,53.90
2018-05-25T11:10:22.131Z,54.40
2018-05-25T11:12:49.217Z,52.40
2018-05-25T11:15:15.552Z,52.50
2018-05-25T11:17:41.899Z,51.90
2018-05-25T11:20:08.224Z,52.40
2018-05-25T11:22:34.561Z,51.70
2018-05-25T11:25:00.867Z,51.00
2018-05-25T11:27:27.255Z,51.10
2018-05-25T11:29:54.323Z,51.60
2018-05-25T11:32:20.676Z,51.60
2018-05-25T11:34:47.035Z,50.60
2018-05-25T11:37:13.411Z,50.30
2018-05-25T11:39:39.717Z,48.60
2018-05-25T11:42:06.793Z,47.90
2018-05-25T11:44:33.125Z,47.90
2018-05-25T11:46:59.452Z,47.90
2018-05-25T11:49:25.788Z,47.90
2018-05-25T11:51:52.120Z,47.30
2018-05-25T11:54:19.196Z,48.40
2018-05-25T11:56:45.540Z,48.00
2018-05-25T11:59:11.851Z,47.70
2018-05-25T12:01:38.186Z,46.90
2018-05-25T12:04:04.543Z,45.60
2018-05-25T12:06:30.914Z,45.70
2018-05-25T12:08:57.192Z,46.40
2018-05-25T12:11:23.523Z,46.00
2018-05-25T12:13:49.906Z,45.70
2018-05-25T12:16:16.278Z,44.10
2018-05-25T12:18:42.604Z,44.50
2018-05-25T12:21:08.913Z,45.50
2018-05-25T12:23:35.225Z,45.10
2018-05-25T12:26:01.580Z,46.10
2018-05-25T12:28:27.880Z,46.70
2018-05-25T12:30:54.247Z,45.50
2018-05-25T12:33:20.565Z,45.70
2018-05-25T12:35:46.956Z,44.20
2018-05-25T12:38:13.261Z,42.30
2018-05-25T12:40:40.365Z,44.10
2018-05-25T12:43:06.695Z,44.00
2018-05-25T12:45:34.037Z,45.00
2018-05-25T12:48:00.410Z,44.10
2018-05-25T12:50:26.727Z,44.20
2018-05-25T12:52:53.095Z,43.60
2018-05-25T12:55:19.430Z,42.30
2018-05-25T12:57:45.758Z,42.40
2018-05-25T13:00:12.077Z,43.70
2018-05-25T13:02:38.407Z,43.60
2018-05-25T13:05:05.488Z,41.60
2018-05-25T13:07:31.856Z,41.40
2018-05-25T13:09:58.200Z,41.60
2018-05-25T13:12:25.265Z,41.90
2018-05-25T13:14:51.610Z,41.70
2018-05-25T13:17:17.913Z,42.60
2018-05-25T13:19:45.265Z,44.10
2018-05-25T13:22:12.351Z,41.50
2018-05-25T13:24:38.792Z,41.50
2018-05-25T13:27:15.710Z,42.10
2018-05-25T13:29:42.060Z,41.40
2018-05-25T13:32:08.433Z,41.70
2018-05-25T13:34:34.749Z,40.10
2018-05-25T13:37:01.096Z,40.20
2018-05-25T13:39:27.378Z,39.50
2018-05-25T13:41:54.467Z,40.90
2018-05-25T13:44:20.802Z,40.90
2018-05-25T13:46:47.225Z,41.30
2018-05-25T13:49:13.551Z,41.80
2018-05-25T13:51:39.911Z,41.80
2018-05-25T13:54:06.244Z,42.40
2018-05-25T13:56:32.570Z,40.00
2018-05-25T13:58:58.892Z,40.50
2018-05-25T14:01:25.227Z,40.80
2018-05-25T14:03:51.528Z,40.10
2018-05-25T14:06:17.897Z,39.30
2018-05-25T14:08:44.252Z,38.70
2018-05-25T14:11:10.651Z,38.40
2018-05-25T14:13:37.046Z,38.10
2018-05-25T14:16:03.411Z,39.10
2018-05-25T14:18:36.742Z,41.40
2018-05-25T14:21:03.073Z,42.50
2018-05-25T14:23:29.430Z,43.10
2018-05-25T14:25:55.747Z,43.80
2018-05-25T14:28:22.121Z,42.80
2018-05-25T14:30:48.431Z,42.50
2018-05-25T14:33:14.828Z,42.20
2018-05-25T14:35:41.149Z,41.30
2018-05-25T14:38:07.527Z,41.10
2018-05-25T14:40:34.497Z,41.90
2018-05-25T14:43:00.825Z,41.10
2018-05-25T14:45:27.925Z,42.30
2018-05-25T14:47:54.273Z,41.60
2018-05-25T14:50:20.664Z,42.40
2018-05-25T14:52:46.961Z,42.90
2018-05-25T14:55:13.321Z,42.60
2018-05-25T14:57:40.182Z,41.20
2018-05-25T15:00:07.252Z,41.40
2018-05-25T15:02:33.572Z,41.40
2018-05-25T15:04:59.932Z,40.00
2018-05-25T15:07:26.313Z,39.50
2018-05-25T15:09:52.625Z,39.70
2018-05-25T15:12:18.980Z,40.10
2018-05-25T15:14:45.290Z,40.20
2018-05-25T15:17:11.663Z,40.20
2018-05-25T15:19:38.039Z,40.10
2018-05-25T15:22:04.416Z,40.40
2018-05-25T15:24:30.761Z,40.80
2018-05-25T15:26:57.668Z,41.10
2018-05-25T15:29:24.025Z,41.20
2018-05-25T15:31:50.437Z,40.00
2018-05-25T15:34:16.715Z,42.20
2018-05-25T15:36:43.778Z,40.10
2018-05-25T15:39:10.180Z,40.00
2018-05-25T15:41:36.505Z,40.30
2018-05-25T15:44:03.601Z,41.10
2018-05-25T15:46:29.969Z,40.40
2018-05-25T15:48:56.294Z,39.50
2018-05-25T15:51:22.635Z,40.00
2018-05-25T15:53:48.931Z,38.70
2018-05-25T15:56:15.305Z,39.90
2018-05-25T15:58:41.631Z,39.10
2018-05-25T16:01:07.971Z,39.10
2018-05-25T16:03:35.191Z,40.60
2018-05-25T16:06:01.589Z,39.90
2018-05-25T16:08:27.923Z,39.40
2018-05-25T16:10:54.236Z,39.10
2018-05-25T16:13:20.592Z,39.80
2018-05-25T16:15:46.971Z,39.80
2018-05-25T16:18:13.348Z,38.90
2018-05-25T16:20:39.725Z,37.90
2018-05-25T16:23:06.041Z,38.00
2018-05-25T16:25:32.364Z,39.00
2018-05-25T16:27:58.675Z,38.80
2018-05-25T16:30:25.028Z,39.00
2018-05-25T16:32:51.345Z,39.60
2018-05-25T16:35:17.650Z,39.60
2018-05-25T16:37:43.978Z,39.70
2018-05-25T16:40:10.419Z,39.70
2018-05-25T16:42:36.753Z,39.60
2018-05-25T16:45:03.132Z,39.60
2018-05-25T16:47:29.453Z,40.30
2018-05-25T16:49:55.777Z,39.30
2018-05-25T16:52:22.099Z,39.60
2018-05-25T16:54:48.410Z,41.00
2018-05-25T16:57:14.784Z,39.60
2018-05-25T16:59:41.889Z,40.60
2018-05-25T17:02:08.223Z,40.60
2018-05-25T17:04:34.536Z,40.50
2018-05-25T17:07:00.876Z,41.60
2018-05-25T17:09:27.241Z,41.90
2018-05-25T17:11:53.581Z,41.80
2018-05-25T17:14:19.944Z,40.90
2018-05-25T17:16:46.273Z,40.50
2018-05-25T17:19:12.603Z,41.30
2018-05-25T17:21:38.968Z,41.00
2018-05-25T17:24:05.306Z,41.00
2018-05-25T17:26:31.673Z,41.50
2018-05-25T17:28:57.973Z,41.90
2018-05-25T17:31:24.335Z,41.60
2018-05-25T17:33:51.363Z,42.30
2018-05-25T17:36:18.405Z,43.60
2018-05-25T17:38:45.459Z,42.70
2018-05-25T17:41:11.804Z,42.60
2018-05-25T17:43:38.115Z,42.80
2018-05-25T17:46:04.480Z,42.40
2018-05-25T17:48:30.791Z,43.70
2018-05-25T17:51:04.039Z,43.40
2018-05-25T17:53:30.336Z,43.70
2018-05-25T17:55:56.648Z,43.10
2018-05-25T17:58:22.972Z,42.90
2018-05-25T18:00:49.300Z,42.90
2018-05-25T18:03:15.662Z,43.00
2018-05-25T18:05:42.022Z,43.00
2018-05-25T18:08:08.501Z,43.20
2018-05-25T18:10:34.792Z,43.50
2018-05-25T18:13:01.910Z,43.60
2018-05-25T18:15:28.276Z,43.60
2018-05-25T18:17:54.610Z,43.70
2018-05-25T18:20:21.679Z,44.90
2018-05-25T18:22:48.016Z,44.90
2018-05-25T18:25:14.376Z,45.20
2018-05-25T18:27:40.725Z,45.30
2018-05-25T18:30:07.226Z,45.30
2018-05-25T18:32:33.605Z,44.50
2018-05-25T18:35:00.682Z,45.40
2018-05-25T18:37:26.980Z,45.30
2018-05-25T18:40:00.973Z,47.70
2018-05-25T18:42:27.287Z,47.60
2018-05-25T18:44:53.664Z,48.30
2018-05-25T18:47:20.024Z,48.20
2018-05-25T18:49:46.372Z,48.50
2018-05-25T18:52:12.729Z,48.80
2018-05-25T18:54:39.837Z,50.20
2018-05-25T18:57:06.167Z,50.10
2018-05-25T18:59:32.526Z,50.60
2018-05-25T19:01:58.832Z,50.90
2018-05-25T19:04:25.171Z,51.40
2018-05-25T19:06:51.503Z,51.90
2018-05-25T19:09:17.862Z,52.40
2018-05-25T19:11:44.946Z,53.10
2018-05-25T19:14:11.356Z,53.10
2018-05-25T19:16:37.732Z,53.60
2018-05-25T19:19:04.080Z,53.70
2018-05-25T19:21:30.400Z,54.00
2018-05-25T19:23:56.745Z,54.50
2018-05-25T19:26:23.053Z,54.20
2018-05-25T19:28:49.732Z,54.40
2018-05-25T19:31:16.787Z,54.60
2018-05-25T19:33:43.140Z,54.60
2018-05-25T19:36:09.496Z,54.70
2018-05-25T19:38:35.887Z,54.90
2018-05-25T19:41:02.260Z,55.30
2018-05-25T19:43:28.610Z,55.50
2018-05-25T19:45:54.984Z,55.00
2018-05-25T19:48:21.322Z,54.90
2018-05-25T19:50:47.779Z,54.50
2018-05-25T19:53:14.139Z,54.90
2018-05-25T19:55:41.282Z,54.80
2018-05-25T19:58:07.603Z,54.70
2018-05-25T20:00:34.006Z,54.80
2018-05-25T20:03:00.361Z,55.00
2018-05-25T20:05:27.534Z,57.50
2018-05-25T20:07:53.906Z,58.70
2018-05-25T20:10:20.225Z,59.50
2018-05-25T20:12:46.570Z,60.10
2018-05-25T20:15:13.796Z,61.20
2018-05-25T20:17:40.119Z,61.30
2018-05-25T20:20:06.440Z,62.00
2018-05-25T20:22:32.793Z,62.20
2018-05-25T20:24:59.958Z,61.60
2018-05-25T20:27:26.959Z,61.80
2018-05-25T20:29:53.381Z,62.40
2018-05-25T20:32:19.774Z,62.70
2018-05-25T20:34:46.120Z,62.40
2018-05-25T20:37:12.472Z,62.50
2018-05-25T20:39:39.592Z,64.10
2018-05-25T20:42:06.032Z,64.10
2018-05-25T20:44:32.344Z,62.40
2018-05-25T20:46:58.710Z,61.90
2018-05-25T20:49:25.845Z,61.60
2018-05-25T20:51:52.193Z,61.60
2018-05-25T20:54:19.375Z,64.00
2018-05-25T20:56:45.747Z,64.00
2018-05-25T20:59:12.171Z,63.80
2018-05-25T21:01:38.540Z,63.80
2018-05-25T21:04:04.909Z,65.30
2018-05-25T21:06:31.250Z,63.70
2018-05-25T21:08:57.620Z,63.80
2018-05-25T21:11:24.025Z,63.30
2018-05-25T21:13:50.388Z,63.80
2018-05-25T21:16:17.532Z,65.60
2018-05-25T21:18:43.893Z,65.60
2018-05-25T21:21:10.259Z,66.80
2018-05-25T21:23:36.624Z,68.30
2018-05-25T21:26:03.755Z,67.00
2018-05-25T21:28:30.866Z,67.90
2018-05-25T21:30:57.217Z,67.20
2018-05-25T21:33:23.563Z,67.30
2018-05-25T21:35:50.638Z,67.70
2018-05-25T21:38:16.956Z,67.70
2018-05-25T21:40:44.111Z,66.50
2018-05-25T21:43:11.406Z,66.50
2018-05-25T21:45:37.778Z,66.10
2018-05-25T21:48:04.138Z,66.50
2018-05-25T21:50:30.462Z,67.60
2018-05-25T21:52:57.448Z,67.10
2018-05-25T21:55:23.836Z,67.20
2018-05-25T21:57:50.166Z,68.00
2018-05-25T22:00:16.548Z,69.10
2018-05-25T22:02:42.937Z,68.50
2018-05-25T22:05:09.300Z,68.30
2018-05-25T22:07:35.634Z,68.10
2018-05-25T22:10:02.585Z,68.30
2018-05-25T22:12:28.993Z,68.80
2018-05-25T22:14:55.413Z,69.00
2018-05-25T22:17:21.776Z,68.50
2018-05-25T22:19:48.145Z,69.10
2018-05-25T22:22:15.233Z,68.70
2018-05-25T22:24:41.631Z,68.50
2018-05-25T22:27:08.005Z,69.60
2018-05-25T22:29:34.351Z,69.80
2018-05-25T22:32:01.452Z,70.20
2018-05-25T22:34:27.778Z,70.20
2018-05-25T22:36:54.197Z,70.10
2018-05-25T22:39:20.540Z,70.10
2018-05-25T22:41:55.402Z,71.40
2018-05-25T22:44:39.932Z,70.50
2018-05-25T22:47:24.535Z,70.80
2018-05-25T22:50:09.107Z,71.20
2018-05-25T22:52:41.120Z,70.70
2018-05-25T22:55:12.376Z,70.90
2018-05-25T22:57:39.459Z,72.60
2018-05-25T23:00:06.577Z,73.20
2018-05-25T23:02:32.944Z,72.40
2018-05-25T23:04:59.268Z,72.40
2018-05-25T23:07:25.625Z,72.50
2018-05-25T23:09:51.973Z,72.60
2018-05-25T23:12:18.308Z,72.60
2018-05-25T23:14:44.661Z,72.50
2018-05-25T23:17:11.024Z,74.00
2018-05-25T23:19:37.358Z,73.70
2018-05-25T23:22:04.595Z,73.30
2018-05-25T23:24:31.685Z,74.30
2018-05-25T23:26:58.012Z,74.20
2018-05-25T23:29:24.371Z,75.40
2018-05-25T23:31:50.704Z,75.10
2018-05-25T23:34:17.058Z,75.70
2018-05-25T23:36:44.152Z,77.10
2018-05-25T23:39:10.474Z,77.10
2018-05-25T23:41:36.849Z,76.60
2018-05-25T23:44:03.178Z,76.40
2018-05-25T23:46:29.510Z,76.30
2018-05-25T23:48:55.809Z,76.70
2018-05-25T23:51:22.146Z,76.80
2018-05-25T23:53:49.227Z,77.60
2018-05-25T23:56:15.559Z,77.20
2018-05-25T23:58:42.653Z,78.00
